Other Surface Observations
Issued by NWS Great Falls, MT

Home | Current Version | Previous Version | Text Only | Print | Product List | Glossary On
Versions: 1 2 3 4 5 6 7 8 9 10 11 12 13 14 15 16 17 18 19 20 21 22 23 24 25 26 27 28 29 30 31 32 33 34 35 36 37 38 39 40 41 42 43 44 45 46 47 48 49 50
265
SXUS55 KTFX 132029
OSOTFX
AREA AWOS OBSERVATIONS
NATIONAL WEATHER SERVICE GREAT FALLS MT
0129 PM MST SAT FEB 13 2016

METAR KPWD 132030Z AUTO 15009KT 3SM M06/M07 A2979 RMK PLENTYWOOD
METAR KPO1 132030Z AUTO 06003KT 3SM M01/M03 A2979 RMK POPLAR
METAR K1S3 132030Z AUTO 28012G22KT 9SM 06/03 A2988 RMK FORSYTH
METAR KS71 132030Z AUTO 28015G23KT 10SM 08/M02 A2984 RMK CHINOOK
METAR K38S 132030Z AUTO 32007KT 10SM 04/M04 A3011 RMK DEER LODGE
METAR K3U3 132030Z AUTO 25012G29KT 10SM 04/M06 A3009 RMK ANACONDA
METAR K6S5 132030Z AUTO 28009G14KT 10SM 07/M06 A3016 RMK HAMILTON



USA.gov is the U.S. government's official web portal to all federal, state and local government web resources and services.